createdAt,value
2019-04-04T00:01:36.578Z,10.30
2019-04-04T00:04:10.458Z,10.20
2019-04-04T00:06:49.835Z,10.20
2019-04-04T00:09:22.911Z,10.20
2019-04-04T00:11:53.345Z,10.30
2019-04-04T00:14:23.779Z,10.40
2019-04-04T00:16:55.853Z,10.40
2019-04-04T00:19:27.902Z,10.40
2019-04-04T00:21:58.830Z,10.40
2019-04-04T00:24:33.509Z,10.40
2019-04-04T00:27:08.043Z,10.40
2019-04-04T00:29:38.869Z,10.30
2019-04-04T00:32:09.822Z,10.40
2019-04-04T00:34:40.205Z,10.30
2019-04-04T00:37:11.359Z,10.30
2019-04-04T00:39:41.855Z,10.30
2019-04-04T00:42:12.331Z,10.20
2019-04-04T00:44:43.267Z,10.10
2019-04-04T00:47:14.108Z,10.00
2019-04-04T00:49:44.579Z,10.00
2019-04-04T00:52:18.724Z,9.90
2019-04-04T00:54:55.933Z,9.90
2019-04-04T00:57:28.100Z,9.90
2019-04-04T01:00:00.750Z,9.90
2019-04-04T01:02:49.917Z,9.90
2019-04-04T01:05:20.132Z,9.90
2019-04-04T01:07:51.550Z,9.90
2019-04-04T01:10:22.827Z,9.90
2019-04-04T01:12:58.490Z,9.80
2019-04-04T01:15:34.080Z,9.90
2019-04-04T01:18:24.179Z,9.90
2019-04-04T01:21:01.536Z,10.00
2019-04-04T01:23:35.576Z,10.10
2019-04-04T01:26:11.334Z,10.20
2019-04-04T01:28:44.150Z,10.30
2019-04-04T01:31:16.653Z,10.40
2019-04-04T01:33:53.562Z,10.40
2019-04-04T01:36:29.462Z,10.30
2019-04-04T01:39:06.085Z,10.30
2019-04-04T01:41:38.954Z,10.20
2019-04-04T01:44:19.528Z,10.10
2019-04-04T01:47:09.373Z,10.00
2019-04-04T01:49:41.581Z,9.90
2019-04-04T01:52:19.986Z,9.80
2019-04-04T01:55:02.924Z,9.80
2019-04-04T01:57:33.304Z,9.80
2019-04-04T02:00:06.722Z,9.90
2019-04-04T02:02:37.146Z,9.90
2019-04-04T02:05:07.577Z,10.10
2019-04-04T02:07:38.095Z,10.30
2019-04-04T02:10:08.612Z,10.40
2019-04-04T02:12:42.232Z,10.50
2019-04-04T02:15:16.957Z,10.50
2019-04-04T02:17:47.768Z,10.50
2019-04-04T02:20:20.058Z,10.60
2019-04-04T02:22:50.402Z,10.70
2019-04-04T02:25:22.240Z,10.70
2019-04-04T02:27:53.030Z,10.70
2019-04-04T02:30:23.336Z,10.80
2019-04-04T02:32:54.061Z,10.80
2019-04-04T02:35:24.649Z,10.90
2019-04-04T02:37:56.121Z,10.90
2019-04-04T02:40:27.734Z,10.90
2019-04-04T02:43:28.413Z,10.90
2019-04-04T02:46:01.121Z,10.90
2019-04-04T02:48:31.815Z,10.90
2019-04-04T02:51:07.919Z,10.90
2019-04-04T02:53:42.381Z,11.10
2019-04-04T02:56:12.898Z,11.40
2019-04-04T02:58:45.910Z,11.60
2019-04-04T03:01:16.742Z,11.80
2019-04-04T03:03:56.659Z,12.10
2019-04-04T03:06:27.035Z,12.20
2019-04-04T03:08:57.473Z,12.40
2019-04-04T03:11:27.716Z,12.50
2019-04-04T03:14:03.349Z,12.60
2019-04-04T03:16:37.036Z,12.70
2019-04-04T03:19:11.314Z,12.80
2019-04-04T03:21:41.770Z,12.90
2019-04-04T03:24:13.832Z,13.00
2019-04-04T03:26:52.159Z,13.10
2019-04-04T03:29:19.035Z,13.10
2019-04-04T03:31:49.641Z,13.20
2019-04-04T03:34:23.124Z,13.30
2019-04-04T03:36:56.804Z,13.30
2019-04-04T03:39:27.184Z,13.40
2019-04-04T03:42:00.978Z,13.40
2019-04-04T03:44:33.118Z,13.40
2019-04-04T03:47:17.839Z,13.40
2019-04-04T03:49:40.404Z,13.50
2019-04-04T03:52:15.355Z,13.50
2019-04-04T03:54:56.698Z,13.50
2019-04-04T03:57:30.547Z,13.50
2019-04-04T04:00:05.572Z,13.60
2019-04-04T04:02:35.141Z,13.60
2019-04-04T04:05:16.732Z,13.60
2019-04-04T04:07:48.067Z,13.60
2019-04-04T04:10:23.175Z,13.60
2019-04-04T04:12:59.343Z,13.60
2019-04-04T04:15:31.221Z,13.70
2019-04-04T04:18:07.604Z,13.70
2019-04-04T04:20:43.400Z,13.70
2019-04-04T04:23:16.362Z,13.70
2019-04-04T04:25:46.809Z,13.70
2019-04-04T04:28:19.787Z,13.70
2019-04-04T04:30:55.152Z,13.70
2019-04-04T04:33:29.972Z,13.70
2019-04-04T04:36:00.278Z,13.70
2019-04-04T04:38:32.363Z,13.70
2019-04-04T04:41:05.890Z,13.70
2019-04-04T04:43:38.526Z,13.70
2019-04-04T04:46:08.087Z,13.70
2019-04-04T04:48:39.228Z,13.70
2019-04-04T04:51:34.729Z,13.80
2019-04-04T05:00:02.535Z,13.80
2019-04-04T05:02:36.763Z,13.80
2019-04-04T05:05:42.776Z,13.80
2019-04-04T05:08:39.037Z,13.80
2019-04-04T05:11:19.129Z,13.80
2019-04-04T05:14:01.228Z,13.80
2019-04-04T05:16:37.874Z,13.80
2019-04-04T05:19:17.113Z,13.70
2019-04-04T05:21:57.256Z,13.70
2019-04-04T05:24:32.819Z,13.70
2019-04-04T05:27:12.214Z,13.70
2019-04-04T05:30:03.322Z,13.70
2019-04-04T05:32:34.620Z,13.70
2019-04-04T05:35:06.233Z,13.70
2019-04-04T05:37:39.840Z,13.70
2019-04-04T05:40:17.192Z,13.70
2019-04-04T05:42:49.530Z,13.70
2019-04-04T05:45:19.854Z,13.70
2019-04-04T05:47:50.288Z,13.60
2019-04-04T05:50:22.184Z,13.60
2019-04-04T05:52:55.520Z,13.60
2019-04-04T05:55:28.334Z,13.60
2019-04-04T05:57:58.603Z,13.60
2019-04-04T06:00:31.067Z,13.70
2019-04-04T06:03:01.523Z,13.70
2019-04-04T06:05:36.197Z,13.70
2019-04-04T06:08:08.267Z,13.70
2019-04-04T06:10:40.276Z,13.70
2019-04-04T06:13:16.657Z,13.70
2019-04-04T06:15:51.870Z,13.80
2019-04-04T06:18:30.244Z,13.80
2019-04-04T06:20:54.898Z,13.80
2019-04-04T06:24:02.655Z,13.80
2019-04-04T06:34:47.307Z,13.80
2019-04-04T06:38:49.603Z,13.70
2019-04-04T06:56:34.618Z,13.70
2019-04-04T09:32:30.158Z,13.80
2019-04-04T09:35:06.457Z,13.70
2019-04-04T09:37:52.445Z,13.70
2019-04-04T09:40:25.226Z,13.70
2019-04-04T09:42:56.393Z,13.60
2019-04-04T09:45:27.867Z,13.50
2019-04-04T09:48:06.396Z,13.50
2019-04-04T09:50:51.994Z,13.50
2019-04-04T09:53:24.948Z,13.40
2019-04-04T09:55:59.769Z,13.40
2019-04-04T09:58:31.416Z,13.40
2019-04-04T10:01:02.963Z,13.40
2019-04-04T10:03:37.194Z,13.40
2019-04-04T10:06:19.166Z,13.50
2019-04-04T10:08:55.360Z,13.50
2019-04-04T10:11:34.340Z,13.40
2019-04-04T10:14:05.135Z,13.40
2019-04-04T10:16:43.279Z,13.40
2019-04-04T10:19:18.684Z,13.40
2019-04-04T10:21:49.395Z,13.30
2019-04-04T10:24:22.728Z,13.20
2019-04-04T10:26:53.589Z,13.20
2019-04-04T10:32:27.516Z,13.20
2019-04-04T10:35:06.753Z,13.10
2019-04-04T10:37:38.291Z,13.20
2019-04-04T10:40:10.581Z,13.10
2019-04-04T10:42:46.982Z,13.10
2019-04-04T10:45:20.378Z,13.10
2019-04-04T10:47:52.999Z,13.10
2019-04-04T10:50:35.588Z,13.00
2019-04-04T10:53:07.800Z,13.00
2019-04-04T10:55:41.539Z,12.90
2019-04-04T10:58:12.313Z,12.90
2019-04-04T11:00:45.785Z,12.80
2019-04-04T11:03:24.445Z,12.80
2019-04-04T11:05:58.921Z,12.70
2019-04-04T11:08:33.671Z,12.70
2019-04-04T11:11:07.236Z,12.70
2019-04-04T11:16:54.147Z,12.60
2019-04-04T11:19:30.872Z,12.60
2019-04-04T11:21:58.346Z,12.60
2019-04-04T11:24:29.201Z,12.60
2019-04-04T11:27:01.349Z,12.60
2019-04-04T11:29:32.343Z,12.60
2019-04-04T11:32:05.528Z,12.60
2019-04-04T11:34:36.319Z,12.50
2019-04-04T11:37:12.391Z,12.50
2019-04-04T11:39:54.007Z,12.50
2019-04-04T11:45:57.996Z,12.50
2019-04-04T11:48:39.894Z,12.50
2019-04-04T11:54:14.232Z,12.60
2019-04-04T11:57:06.274Z,12.70
2019-04-04T11:59:36.766Z,12.70
2019-04-04T12:02:06.941Z,12.70
2019-04-04T12:04:37.185Z,12.70
2019-04-04T12:07:07.382Z,12.80
2019-04-04T12:09:37.523Z,12.80
2019-04-04T12:12:07.607Z,12.90
2019-04-04T12:14:38.562Z,12.90
2019-04-04T12:17:09.264Z,12.90
2019-04-04T12:19:39.727Z,12.90
2019-04-04T12:22:11.779Z,12.90
2019-04-04T12:24:41.994Z,13.00
2019-04-04T12:27:15.042Z,13.00
2019-04-04T12:29:45.223Z,13.10
2019-04-04T12:32:15.524Z,13.10
2019-04-04T12:34:45.574Z,13.20
2019-04-04T12:37:17.436Z,13.30
2019-04-04T12:39:47.951Z,13.30
2019-04-04T12:42:18.503Z,13.40
2019-04-04T12:44:48.598Z,13.50
2019-04-04T12:47:18.593Z,13.50
2019-04-04T12:49:48.627Z,13.60
2019-04-04T12:52:18.839Z,13.70
2019-04-04T12:54:49.067Z,13.70
2019-04-04T12:57:19.223Z,13.80
2019-04-04T12:59:49.973Z,13.90
2019-04-04T13:02:20.511Z,13.90
2019-04-04T13:04:51.156Z,14.00
2019-04-04T13:07:21.417Z,14.00
2019-04-04T13:09:51.475Z,14.10
2019-04-04T13:12:22.264Z,14.20
2019-04-04T13:14:52.765Z,14.20
2019-04-04T13:17:22.742Z,14.30
2019-04-04T13:19:56.066Z,14.30
2019-04-04T13:22:26.689Z,14.30
2019-04-04T13:24:58.559Z,14.30
2019-04-04T13:27:30.146Z,14.30
2019-04-04T13:30:01.587Z,14.30
2019-04-04T13:32:32.231Z,14.30
2019-04-04T13:35:04.860Z,14.30
2019-04-04T13:37:34.896Z,14.30
2019-04-04T13:40:06.284Z,14.20
2019-04-04T13:42:46.933Z,14.10
2019-04-04T13:45:25.906Z,14.10
2019-04-04T13:47:55.494Z,14.00
2019-04-04T13:50:26.051Z,13.80
2019-04-04T13:52:56.394Z,13.60
2019-04-04T13:55:27.937Z,13.60
2019-04-04T13:58:02.234Z,13.50
2019-04-04T14:00:32.990Z,13.40
2019-04-04T14:03:03.341Z,13.30
2019-04-04T14:05:35.924Z,13.20
2019-04-04T14:08:08.273Z,13.10
2019-04-04T14:10:40.831Z,13.10
2019-04-04T14:13:15.644Z,13.00
2019-04-04T14:15:49.801Z,13.00
2019-04-04T14:18:39.486Z,13.00
2019-04-04T14:21:04.274Z,12.90
2019-04-04T14:23:45.122Z,12.70
2019-04-04T14:26:16.570Z,12.60
2019-04-04T14:28:48.712Z,12.60
2019-04-04T14:31:27.536Z,12.50
2019-04-04T14:34:03.180Z,12.40
2019-04-04T14:36:36.506Z,12.30
2019-04-04T14:39:12.109Z,12.30
2019-04-04T14:41:46.355Z,12.20
2019-04-04T14:44:17.299Z,12.10
2019-04-04T14:46:58.053Z,12.00
2019-04-04T14:49:31.792Z,11.90
2019-04-04T14:52:06.991Z,11.80
2019-04-04T14:54:39.377Z,11.70
2019-04-04T14:57:09.549Z,11.60
2019-04-04T14:59:40.913Z,11.50
2019-04-04T15:02:11.141Z,11.40
2019-04-04T15:04:43.011Z,11.40
2019-04-04T15:07:13.040Z,11.40
2019-04-04T15:09:43.617Z,11.40
2019-04-04T15:12:14.898Z,11.40
2019-04-04T15:14:45.321Z,11.30
2019-04-04T15:17:15.360Z,11.30
2019-04-04T15:19:47.416Z,11.20
2019-04-04T15:22:18.216Z,11.20
2019-04-04T15:24:48.410Z,11.20
2019-04-04T15:27:18.378Z,11.10
2019-04-04T15:29:48.489Z,11.10
2019-04-04T15:32:19.841Z,11.10
2019-04-04T15:34:50.315Z,11.20
2019-04-04T15:37:20.950Z,11.20
2019-04-04T15:39:51.055Z,11.20
2019-04-04T15:42:21.177Z,11.20
2019-04-04T15:44:52.217Z,11.20
2019-04-04T15:47:48.274Z,11.20
2019-04-04T15:50:18.769Z,11.20
2019-04-04T15:52:48.778Z,11.10
2019-04-04T15:55:19.044Z,11.10
2019-04-04T15:57:49.660Z,11.10
2019-04-04T16:00:20.508Z,11.10
2019-04-04T16:02:50.706Z,11.10
2019-04-04T16:05:21.818Z,11.10
2019-04-04T16:07:51.876Z,11.10
2019-04-04T16:10:22.208Z,11.00
2019-04-04T16:12:53.037Z,11.00
2019-04-04T16:15:23.143Z,11.00
2019-04-04T16:17:53.783Z,10.90
2019-04-04T16:20:24.143Z,10.90
2019-04-04T16:22:54.600Z,10.90
2019-04-04T16:25:24.851Z,10.90
2019-04-04T16:28:06.982Z,10.90
2019-04-04T16:30:37.679Z,10.90
2019-04-04T16:33:08.233Z,10.80
2019-04-04T16:35:38.866Z,10.80
2019-04-04T16:38:11.288Z,10.80
2019-04-04T16:40:42.115Z,10.80
2019-04-04T16:43:13.228Z,10.80
2019-04-04T16:45:46.932Z,10.80
2019-04-04T16:48:17.500Z,10.80
2019-04-04T16:50:48.471Z,10.70
2019-04-04T16:53:19.182Z,10.70
2019-04-04T16:55:49.374Z,10.60
2019-04-04T16:58:19.463Z,10.60
2019-04-04T17:00:50.076Z,10.50
2019-04-04T17:07:23.920Z,10.50
2019-04-04T17:10:06.292Z,10.40
2019-04-04T17:12:36.636Z,10.40
2019-04-04T17:15:07.388Z,10.40
2019-04-04T17:17:39.169Z,10.50
2019-04-04T17:20:17.026Z,10.60
2019-04-04T17:22:47.822Z,10.60
2019-04-04T17:25:17.915Z,10.60
2019-04-04T17:27:48.705Z,10.50
2019-04-04T17:30:19.730Z,10.40
2019-04-04T17:32:50.321Z,10.30
2019-04-04T17:35:20.562Z,10.20
2019-04-04T17:37:51.621Z,10.10
2019-04-04T17:40:21.982Z,10.10
2019-04-04T17:42:52.271Z,10.00
2019-04-04T17:45:23.108Z,9.90
2019-04-04T17:47:54.557Z,9.80
2019-04-04T17:50:25.354Z,9.70
2019-04-04T17:52:55.948Z,9.70
2019-04-04T17:55:26.633Z,9.70
2019-04-04T17:57:57.136Z,9.60
2019-04-04T18:00:28.768Z,9.60
2019-04-04T18:02:59.941Z,9.70
2019-04-04T18:05:29.960Z,9.60
2019-04-04T18:08:00.273Z,9.70
2019-04-04T18:10:31.188Z,9.70
2019-04-04T18:13:01.957Z,9.80
2019-04-04T18:15:33.169Z,9.80
2019-04-04T18:21:12.525Z,9.60
2019-04-04T18:23:44.551Z,9.70
2019-04-04T18:26:16.180Z,9.70
2019-04-04T18:28:48.090Z,9.70
2019-04-04T18:31:19.901Z,9.80
2019-04-04T18:33:51.710Z,9.90
2019-04-04T18:36:23.744Z,10.00
2019-04-04T18:38:55.888Z,10.00
2019-04-04T18:41:27.980Z,10.10
2019-04-04T18:43:59.336Z,10.10
2019-04-04T18:46:30.977Z,10.10
2019-04-04T18:49:02.243Z,10.00
2019-04-04T18:51:33.589Z,10.00
2019-04-04T18:54:05.490Z,10.00
2019-04-04T18:56:36.854Z,10.00
2019-04-04T18:59:09.105Z,10.00
2019-04-04T19:01:41.540Z,9.90
2019-04-04T19:04:12.812Z,9.80
2019-04-04T19:06:44.750Z,9.70
2019-04-04T19:09:16.130Z,9.60
2019-04-04T19:11:47.450Z,9.60
2019-04-04T19:14:19.131Z,9.60
2019-04-04T19:16:50.909Z,9.70
2019-04-04T19:19:22.416Z,9.70
2019-04-04T19:21:54.532Z,9.70
2019-04-04T19:24:26.477Z,9.70
2019-04-04T19:26:58.243Z,9.70
2019-04-04T19:29:31.663Z,9.70
2019-04-04T19:32:05.243Z,9.70
2019-04-04T19:34:36.634Z,9.70
2019-04-04T19:37:07.949Z,9.70
2019-04-04T19:39:40.407Z,9.60
2019-04-04T19:42:12.590Z,9.60
2019-04-04T19:44:53.093Z,9.60
2019-04-04T19:47:17.823Z,9.40
2019-04-04T19:49:49.685Z,9.30
2019-04-04T19:52:21.768Z,9.30
2019-04-04T19:54:53.439Z,9.30
2019-04-04T19:57:27.414Z,9.20
2019-04-04T19:59:59.535Z,9.20
2019-04-04T20:02:31.782Z,9.20
2019-04-04T20:05:04.111Z,9.30
2019-04-04T20:07:36.175Z,9.30
2019-04-04T20:10:07.733Z,9.20
2019-04-04T20:12:39.398Z,9.20
2019-04-04T20:15:11.348Z,9.20
2019-04-04T20:17:43.159Z,9.20
2019-04-04T20:20:15.003Z,9.20
2019-04-04T20:22:47.968Z,9.30
2019-04-04T20:25:19.960Z,9.40
2019-04-04T20:27:55.042Z,9.50
2019-04-04T20:30:38.656Z,9.50
2019-04-04T20:33:09.984Z,9.50
2019-04-04T20:35:41.226Z,9.40
2019-04-04T20:38:12.938Z,9.50
2019-04-04T20:40:44.764Z,9.40
2019-04-04T20:43:16.140Z,9.30
2019-04-04T20:45:47.585Z,9.30
2019-04-04T20:48:23.202Z,9.40
2019-04-04T20:50:54.617Z,9.40
2019-04-04T20:53:26.453Z,9.40
2019-04-04T20:55:58.191Z,9.40
2019-04-04T20:58:29.773Z,9.50
2019-04-04T21:01:01.822Z,9.50
2019-04-04T21:03:33.271Z,9.60
2019-04-04T21:06:05.867Z,9.60
2019-04-04T21:08:37.834Z,9.60
2019-04-04T21:11:09.848Z,9.50
2019-04-04T21:13:56.354Z,9.50
2019-04-04T21:16:27.472Z,9.50
2019-04-04T21:19:03.062Z,9.50
2019-04-04T21:21:36.541Z,9.50
2019-04-04T21:24:10.085Z,9.50
2019-04-04T21:26:41.882Z,9.50
2019-04-04T21:29:21.391Z,9.50
2019-04-04T21:31:56.046Z,9.40
2019-04-04T21:34:27.875Z,9.30
2019-04-04T21:37:01.700Z,9.20
2019-04-04T21:39:33.085Z,9.20
2019-04-04T21:42:05.173Z,9.30
2019-04-04T21:44:36.645Z,9.40
2019-04-04T21:47:08.275Z,9.40
2019-04-04T21:49:40.299Z,9.40
2019-04-04T21:52:13.435Z,9.40
2019-04-04T21:54:45.412Z,9.30
2019-04-04T21:57:17.955Z,9.40
2019-04-04T21:59:50.710Z,9.40
2019-04-04T22:02:23.646Z,9.40
2019-04-04T22:04:55.726Z,9.30
2019-04-04T22:07:27.838Z,9.30
2019-04-04T22:10:00.477Z,9.30
2019-04-04T22:12:32.277Z,9.10
2019-04-04T22:15:04.451Z,9.20
2019-04-04T22:17:37.845Z,9.10
2019-04-04T22:20:09.530Z,9.20
2019-04-04T22:22:40.907Z,9.20
2019-04-04T22:25:12.391Z,9.30
2019-04-04T22:27:44.015Z,9.30
2019-04-04T22:30:15.870Z,9.20
2019-04-04T22:32:47.760Z,9.20
2019-04-04T22:35:19.090Z,9.20
2019-04-04T22:37:51.328Z,9.30
2019-04-04T22:40:23.130Z,9.40
2019-04-04T22:42:55.107Z,9.40
2019-04-04T22:45:26.382Z,9.40
2019-04-04T22:47:58.838Z,9.40
2019-04-04T22:50:30.060Z,9.40
2019-04-04T22:53:04.629Z,9.30
2019-04-04T22:55:35.994Z,9.20
2019-04-04T22:58:07.670Z,9.00
2019-04-04T23:00:39.515Z,9.00
2019-04-04T23:03:11.126Z,8.90
2019-04-04T23:05:42.649Z,9.00
2019-04-04T23:08:14.246Z,9.00
2019-04-04T23:10:46.995Z,9.10
2019-04-04T23:13:18.311Z,9.20
2019-04-04T23:15:49.899Z,9.20
2019-04-04T23:18:23.276Z,9.20
2019-04-04T23:20:55.038Z,9.10
2019-04-04T23:23:26.500Z,9.10
2019-04-04T23:25:57.821Z,9.10
2019-04-04T23:28:29.170Z,9.00
2019-04-04T23:31:00.420Z,9.10
2019-04-04T23:33:32.379Z,9.10
2019-04-04T23:36:04.115Z,9.10
2019-04-04T23:38:36.598Z,9.10
2019-04-04T23:41:08.925Z,9.10
2019-04-04T23:43:41.277Z,9.00
2019-04-04T23:46:12.555Z,9.00
2019-04-04T23:48:43.911Z,9.10
2019-04-04T23:51:15.231Z,9.10
2019-04-04T23:53:46.952Z,9.10
2019-04-04T23:56:18.184Z,8.90
2019-04-04T23:58:49.475Z,8.90
